| time (UTC) | temp C | wind direction | speed KPH | gust KPH | rain 1hr cm | rain 24hr cm | rain mn cm | humidity % | barometer mb |
| 20260510171517 | 15 | 330 | 0.0 | 1.6 | 0.00 | 0.69 | 0.69 | 71 | 1010.3 |
| 20260510171015 | 14 | 156 | 3.2 | 4.8 | 0.00 | 0.69 | 0.69 | 67 | 1010.6 |
| 20260510170511 | 15 | 291 | 4.8 | 8.0 | 0.00 | 0.69 | 0.69 | 69 | 1010.6 |
| 20260510170008 | 14 | 288 | 0.0 | 1.6 | 0.00 | 0.69 | 0.69 | 73 | 1010.6 |
| 20260510165503 | 13 | 321 | 0.0 | 1.6 | 0.00 | 0.69 | 0.69 | 77 | 1010.7 |
| 20260510164959 | 13 | 173 | 4.8 | 4.8 | 0.00 | 0.69 | 0.69 | 80 | 1010.7 |
| 20260510164451 | 13 | 266 | 3.2 | 3.2 | 0.00 | 0.69 | 0.69 | 81 | 1010.3 |
| 20260510163946 | 13 | 119 | 6.4 | 8.0 | 0.00 | 0.69 | 0.69 | 79 | 1010.5 |
| 20260510163442 | 12 | 255 | 4.8 | 4.8 | 0.00 | 0.69 | 0.69 | 85 | 1010.6 |
| 20260510162937 | 12 | 108 | 3.2 | 3.2 | 0.00 | 0.69 | 0.69 | 87 | 1010.7 |
| 20260510162435 | 12 | 12 | 0.0 | 0.0 | 0.00 | 0.69 | 0.69 | 87 | 1010.8 |
| 20260510161931 | 12 | 55 | 1.6 | 1.6 | 0.00 | 0.69 | 0.69 | 87 | 1010.7 |
| 20260510161426 | 12 | 292 | 0.0 | 1.6 | 0.00 | 0.69 | 0.69 | 89 | 1010.8 |
| 20260510160925 | 11 | 142 | 4.8 | 4.8 | 0.00 | 0.69 | 0.69 | 89 | 1010.8 |
| 20260510160421 | 11 | 247 | 1.6 | 1.6 | 0.00 | 0.69 | 0.69 | 90 | 1010.7 |
| 20260510155919 | 11 | 175 | 3.2 | 3.2 | 0.00 | 0.69 | 0.69 | 90 | 1011.0 |
| 20260510155417 | 11 | 304 | 1.6 | 1.6 | 0.00 | 0.69 | 0.69 | 91 | 1010.6 |
| 20260510154913 | 10 | 263 | 0.0 | 1.6 | 0.00 | 0.69 | 0.69 | 93 | 1010.6 |
| 20260510154409 | 10 | 244 | 4.8 | 8.0 | 0.00 | 0.69 | 0.69 | 94 | 1010.7 |
| 20260510153903 | 10 | 297 | 4.8 | 4.8 | 0.00 | 0.69 | 0.69 | 96 | 1010.5 |
| 20260510153400 | 10 | 245 | 4.8 | 4.8 | 0.00 | 0.69 | 0.69 | 96 | 1010.6 |
| 20260510152856 | 10 | 302 | 1.6 | 3.2 | 0.00 | 0.69 | 0.69 | 97 | 1010.3 |
| 20260510152353 | 10 | 233 | 4.8 | 4.8 | 0.00 | 0.69 | 0.69 | 97 | 1010.5 |
| 20260510151849 | 10 | 344 | 4.8 | 4.8 | 0.00 | 0.69 | 0.69 | 98 | 1010.5 |
| 20260510151348 | 10 | 298 | 4.8 | 4.8 | 0.30 | 0.69 | 0.69 | 98 | 1010.5 |
| 20260510150843 | 10 | 292 | 4.8 | 8.0 | 0.30 | 0.69 | 0.69 | 98 | 1010.0 |
| 20260510150339 | 10 | 261 | 4.8 | 4.8 | 0.48 | 0.64 | 0.64 | 98 | 1010.2 |
| 20260510145836 | 10 | 3 | 4.8 | 4.8 | 0.61 | 0.64 | 0.64 | 98 | 1010.5 |
| 20260510145332 | 10 | 300 | 3.2 | 3.2 | 0.30 | 0.56 | 0.56 | 98 | 1010.1 |
| 20260510144829 | 10 | 292 | 6.4 | 8.0 | 0.61 | 0.53 | 0.53 | 98 | 1009.9 |
| 20260510144325 | 10 | 276 | 4.8 | 8.0 | 0.71 | 0.51 | 0.51 | 98 | 1009.8 |
| 20260510143825 | 10 | 355 | 3.2 | 3.2 | 0.48 | 0.43 | 0.43 | 98 | 1009.8 |
| 20260510143321 | 10 | 290 | 1.6 | 3.2 | 0.66 | 0.38 | 0.38 | 98 | 1009.7 |
| 20260510142819 | 10 | 288 | 3.2 | 4.8 | 0.79 | 0.38 | 0.38 | 97 | 1009.7 |
| 20260510142315 | 10 | 284 | 6.4 | 11.3 | 1.19 | 0.30 | 0.30 | 97 | 1009.5 |
| 20260510141812 | 11 | 307 | 4.8 | 4.8 | 0.71 | 0.23 | 0.23 | 97 | 1009.6 |
| 20260510141310 | 11 | 285 | 1.6 | 1.6 | 0.00 | 0.10 | 0.10 | 96 | 1009.4 |
| 20260510140807 | 11 | 315 | 3.2 | 3.2 | 0.00 | 0.10 | 0.10 | 96 | 1009.4 |
| 20260510140302 | 11 | 305 | 4.8 | 4.8 | 0.00 | 0.10 | 0.10 | 96 | 1009.4 |
| 20260510135802 | 11 | 306 | 1.6 | 3.2 | 0.00 | 0.10 | 0.10 | 96 | 1009.4 |
| 20260510135258 | 11 | 311 | 1.6 | 1.6 | 0.00 | 0.10 | 0.10 | 95 | 1009.4 |
| 20260510134755 | 11 | 298 | 1.6 | 3.2 | 0.00 | 0.10 | 0.10 | 95 | 1009.3 |
| 20260510134252 | 11 | 282 | 1.6 | 1.6 | 0.00 | 0.10 | 0.10 | 95 | 1009.2 |
| 20260510133748 | 11 | 220 | 3.2 | 3.2 | 0.00 | 0.10 | 0.10 | 94 | 1009.3 |
| 20260510133244 | 11 | 304 | 0.0 | 0.0 | 0.00 | 0.10 | 0.10 | 94 | 1009.1 |
| 20260510132740 | 11 | 290 | 0.0 | 1.6 | 0.18 | 0.10 | 0.10 | 94 | 1009.2 |
| 20260510132238 | 11 | 29 | 1.6 | 1.6 | 0.30 | 0.10 | 0.10 | 93 | 1009.2 |
| 20260510131734 | 11 | 284 | 1.6 | 1.6 | 0.30 | 0.08 | 0.08 | 93 | 1009.1 |
| 20260510131233 | 11 | 286 | 0.0 | 0.0 | 0.18 | 0.05 | 0.05 | 92 | 1009.0 |
| 20260510130729 | 12 | 194 | 3.2 | 3.2 | 0.00 | 0.03 | 0.03 | 91 | 1009.1 |
| 20260510130226 | 11 | 16 | 1.6 | 1.6 | 0.00 | 0.03 | 0.03 | 90 | 1009.2 |
| 20260510125722 | 11 | 305 | 0.0 | 1.6 | 0.00 | 0.03 | 0.03 | 90 | 1009.0 |
| 20260510125218 | 11 | 273 | 1.6 | 3.2 | 0.00 | 0.03 | 0.03 | 90 | 1008.9 |
| 20260510124715 | 11 | 267 | 1.6 | 3.2 | 0.00 | 0.03 | 0.03 | 90 | 1009.0 |
| 20260510124213 | 11 | 292 | 1.6 | 3.2 | 0.00 | 0.03 | 0.03 | 90 | 1008.7 |
| 20260510123708 | 11 | 346 | 0.0 | 1.6 | 0.00 | 0.03 | 0.03 | 90 | 1008.7 |
| 20260510123204 | 11 | 143 | 1.6 | 3.2 | 0.00 | 0.03 | 0.03 | 90 | 1008.4 |
| 20260510122700 | 11 | 193 | 4.8 | 8.0 | 0.00 | 0.03 | 0.03 | 90 | 1008.8 |
| 20260510122157 | 11 | 114 | 3.2 | 3.2 | 0.00 | 0.03 | 0.03 | 90 | 1008.9 |
| 20260510121653 | 11 | 221 | 3.2 | 3.2 | 0.00 | 0.03 | 0.03 | 90 | 1008.7 |
| 20260510121151 | 11 | 254 | 4.8 | 4.8 | 0.00 | 0.03 | 0.03 | 90 | 1008.9 |
| 20260510120648 | 11 | 176 | 4.8 | 4.8 | 0.00 | 0.03 | 0.03 | 90 | 1008.7 |
| 20260510120144 | 11 | 180 | 4.8 | 8.0 | 0.00 | 0.03 | 0.03 | 91 | 1008.6 |
| 20260510115640 | 11 | 158 | 1.6 | 3.2 | 0.00 | 0.03 | 0.03 | 91 | 1008.5 |
| 20260510115138 | 11 | 319 | 1.6 | 1.6 | 0.00 | 0.03 | 0.03 | 91 | 1008.6 |
| 20260510114634 | 11 | 179 | 0.0 | 1.6 | 0.00 | 0.03 | 0.03 | 91 | 1008.6 |
| 20260510114130 | 11 | 205 | 4.8 | 4.8 | 0.00 | 0.03 | 0.03 | 91 | 1008.5 |
| 20260510113625 | 11 | 296 | 1.6 | 3.2 | 0.00 | 0.03 | 0.03 | 91 | 1008.8 |
| 20260510113123 | 11 | 145 | 4.8 | 8.0 | 0.00 | 0.03 | 0.03 | 91 | 1008.4 |
| 20260510112620 | 11 | 191 | 4.8 | 4.8 | 0.00 | 0.03 | 0.03 | 91 | 1008.5 |
| 20260510112116 | 11 | 275 | 6.4 | 9.7 | 0.00 | 0.03 | 0.03 | 90 | 1008.3 |
| 20260510111612 | 11 | 268 | 1.6 | 1.6 | 0.00 | 0.03 | 0.03 | 90 | 1008.3 |
| 20260510111108 | 11 | 142 | 4.8 | 4.8 | 0.00 | 0.03 | 0.03 | 90 | 1008.0 |
| 20260510110604 | 11 | 256 | 4.8 | 4.8 | 0.00 | 0.03 | 0.03 | 90 | 1008.5 |
| 20260510105557 | 11 | 193 | 8.0 | 9.7 | 0.00 | 0.03 | 0.03 | 91 | 1008.4 |
| 20260510105051 | 11 | 147 | 1.6 | 1.6 | 0.00 | 0.03 | 0.03 | 92 | 1008.2 |
| 20260510104548 | 11 | 256 | 4.8 | 8.0 | 0.00 | 0.03 | 0.03 | 92 | 1008.0 |
| 20260510104045 | 11 | 202 | 4.8 | 4.8 | 0.00 | 0.03 | 0.03 | 93 | 1007.9 |
| 20260510103542 | 10 | 192 | 4.8 | 4.8 | 0.00 | 0.03 | 0.03 | 94 | 1007.6 |
| 20260510103038 | 10 | 72 | 3.2 | 3.2 | 0.00 | 0.03 | 0.03 | 94 | 1007.8 |
| 20260510102534 | 10 | 261 | 4.8 | 8.0 | 0.00 | 0.03 | 0.03 | 95 | 1008.1 |
| 20260510102030 | 10 | 0 | 1.6 | 1.6 | 0.00 | 0.03 | 0.03 | 95 | 1008.2 |
| 20260510101528 | 10 | 304 | 3.2 | 4.8 | 0.00 | 0.03 | 0.03 | 96 | 1007.7 |
| 20260510101026 | 10 | 269 | 1.6 | 1.6 | 0.00 | 0.03 | 0.03 | 96 | 1007.6 |
| 20260510100522 | 10 | 308 | 0.0 | 1.6 | 0.00 | 0.03 | 0.03 | 96 | 1007.3 |
| 20260510100019 | 10 | 46 | 1.6 | 3.2 | 0.00 | 0.03 | 0.03 | 95 | 1007.3 |
| 20260510095515 | 10 | 127 | 3.2 | 4.8 | 0.00 | 0.03 | 0.03 | 96 | 1007.1 |
| 20260510095014 | 10 | 187 | 4.8 | 4.8 | 0.00 | 0.03 | 0.03 | 96 | 1007.3 |
| 20260510094509 | 10 | 303 | 0.0 | 0.0 | 0.00 | 0.03 | 0.03 | 96 | 1007.6 |
| 20260510094005 | 9 | 161 | 3.2 | 4.8 | 0.00 | 0.03 | 0.03 | 97 | 1007.4 |
| 20260510093501 | 9 | 297 | 0.0 | 0.0 | 0.00 | 0.03 | 0.03 | 97 | 1007.4 |
| 20260510092957 | 9 | 289 | 0.0 | 0.0 | 0.00 | 0.03 | 0.03 | 96 | 1007.4 |
| 20260510092455 | 10 | 340 | 0.0 | 1.6 | 0.00 | 0.03 | 0.03 | 96 | 1007.0 |
| 20260510091954 | 10 | 270 | 1.6 | 1.6 | 0.00 | 0.03 | 0.03 | 96 | 1007.2 |
| 20260510091451 | 10 | 8 | 1.6 | 1.6 | 0.00 | 0.03 | 0.03 | 96 | 1007.1 |
| 20260510090948 | 10 | 342 | 1.6 | 1.6 | 0.00 | 0.03 | 0.03 | 96 | 1006.8 |
| 20260510090445 | 10 | 304 | 0.0 | 0.0 | 0.00 | 0.03 | 0.03 | 95 | 1007.0 |
| 20260510085940 | 10 | 317 | 0.0 | 0.0 | 0.00 | 0.03 | 0.03 | 95 | 1006.9 |
| 20260510085435 | 10 | 302 | 1.6 | 1.6 | 0.00 | 0.03 | 0.03 | 95 | 1006.6 |
| 20260510084931 | 10 | 324 | 0.0 | 0.0 | 0.00 | 0.03 | 0.03 | 95 | 1006.5 |
| 20260510084428 | 10 | 306 | 0.0 | 1.6 | 0.00 | 0.03 | 0.03 | 95 | 1006.8 |
| 20260510083925 | 10 | 286 | 0.0 | 1.6 | 0.00 | 0.03 | 0.03 | 95 | 1006.6 |
| 20260510083421 | 10 | 187 | 6.4 | 9.7 | 0.00 | 0.03 | 0.03 | 95 | 1006.7 |
| 20260510082917 | 10 | 229 | 3.2 | 3.2 | 0.00 | 0.03 | 0.03 | 94 | 1006.8 |
| 20260510082415 | 11 | 283 | 1.6 | 3.2 | 0.00 | 0.03 | 0.03 | 94 | 1006.8 |
| 20260510081914 | 11 | 31 | 0.0 | 1.6 | 0.00 | 0.03 | 0.03 | 93 | 1007.1 |
| 20260510081409 | 11 | 140 | 3.2 | 4.8 | 0.00 | 0.03 | 0.03 | 93 | 1007.1 |
| 20260510080906 | 11 | 127 | 4.8 | 4.8 | 0.00 | 0.03 | 0.03 | 93 | 1007.3 |
| 20260510080400 | 11 | 20 | 0.0 | 1.6 | 0.00 | 0.03 | 0.03 | 93 | 1007.2 |
| 20260510075857 | 11 | 173 | 1.6 | 3.2 | 0.00 | 0.03 | 0.03 | 93 | 1007.3 |
| 20260510075355 | 11 | 133 | 4.8 | 4.8 | 0.00 | 0.03 | 0.03 | 93 | 1007.1 |
| 20260510074851 | 11 | 166 | 4.8 | 4.8 | 0.00 | 0.03 | 0.03 | 93 | 1007.0 |
| 20260510074349 | 11 | 106 | 4.8 | 4.8 | 0.00 | 0.03 | 0.03 | 93 | 1007.0 |
| 20260510073845 | 11 | 340 | 4.8 | 8.0 | 0.00 | 0.03 | 0.03 | 93 | 1006.7 |
| 20260510073340 | 11 | 280 | 3.2 | 3.2 | 0.18 | 0.03 | 0.03 | 92 | 1006.9 |
| 20260510072837 | 11 | 144 | 1.6 | 3.2 | 0.18 | 0.03 | 0.03 | 92 | 1006.8 |
| 20260510072334 | 11 | 189 | 11.3 | 12.9 | 0.18 | 0.03 | 0.03 | 92 | 1006.9 |
| 20260510071830 | 11 | 164 | 6.4 | 8.0 | 0.00 | 0.00 | 0.00 | 91 | 1006.9 |
| 20260510071326 | 11 | 164 | 9.7 | 12.9 | 0.00 | 0.00 | 0.00 | 90 | 1007.1 |
| 20260510070825 | 11 | 171 | 8.0 | 11.3 | 0.00 | 0.00 | 0.00 | 89 | 1007.0 |
| 20260510070321 | 11 | 84 | 6.4 | 8.0 | 0.00 | 0.00 | 0.00 | 88 | 1007.2 |
| 20260510065816 | 11 | 153 | 11.3 | 16.1 | 0.00 | 0.00 | 0.00 | 88 | 1007.4 |
| 20260510065313 | 11 | 248 | 1.6 | 3.2 | 0.00 | 0.00 | 0.00 | 88 | 1007.5 |
| 20260510064810 | 11 | 264 | 6.4 | 8.0 | 0.00 | 0.00 | 0.00 | 87 | 1007.4 |
| 20260510064308 | 12 | 159 | 6.4 | 11.3 | 0.00 | 0.00 | 0.00 | 86 | 1007.2 |
| 20260510063803 | 12 | 188 | 4.8 | 8.0 | 0.00 | 0.00 | 0.00 | 84 | 1007.2 |
| 20260510063300 | 12 | 224 | 8.0 | 12.9 | 0.00 | 0.00 | 0.00 | 84 | 1007.2 |
| 20260510062756 | 12 | 146 | 4.8 | 4.8 | 0.00 | 0.00 | 0.00 | 84 | 1007.1 |
| 20260510062252 | 12 | 186 | 3.2 | 3.2 | 0.00 | 0.00 | 0.00 | 84 | 1006.9 |
| 20260510061747 | 12 | 164 | 8.0 | 11.3 | 0.00 | 0.00 | 0.00 | 83 | 1007.1 |
| 20260510061245 | 12 | 156 | 6.4 | 9.7 | 0.00 | 0.00 | 0.00 | 84 | 1006.8 |
| 20260510060741 | 12 | 228 | 3.2 | 4.8 | 0.00 | 0.00 | 0.00 | 84 | 1007.1 |
| 20260510060238 | 12 | 141 | 6.4 | 12.9 | 0.00 | 0.00 | 0.00 | 84 | 1006.9 |
| 20260510055734 | 12 | 243 | 9.7 | 12.9 | 0.00 | 0.00 | 0.00 | 84 | 1007.1 |
| 20260510055233 | 12 | 122 | 3.2 | 4.8 | 0.00 | 0.00 | 0.00 | 84 | 1007.0 |
| 20260510054732 | 11 | 228 | 6.4 | 8.0 | 0.00 | 0.00 | 0.00 | 84 | 1007.3 |
| 20260510054229 | 11 | 166 | 4.8 | 4.8 | 0.00 | 0.00 | 0.00 | 84 | 1007.0 |
| 20260510053728 | 11 | 1 | 1.6 | 3.2 | 0.00 | 0.00 | 0.00 | 84 | 1007.2 |
| 20260510053225 | 11 | 157 | 4.8 | 4.8 | 0.00 | 0.00 | 0.00 | 84 | 1007.1 |
| 20260510052720 | 11 | 286 | 0.0 | 1.6 | 0.00 | 0.00 | 0.00 | 85 | 1007.3 |
| 20260510052217 | 11 | 194 | 4.8 | 4.8 | 0.00 | 0.00 | 0.00 | 85 | 1007.0 |
| 20260510051713 | 11 | 319 | 0.0 | 1.6 | 0.00 | 0.00 | 0.00 | 85 | 1007.1 |
| 20260510051209 | 11 | 261 | 3.2 | 4.8 | 0.00 | 0.00 | 0.00 | 85 | 1007.1 |
| 20260510050707 | 11 | 99 | 4.8 | 8.0 | 0.00 | 0.00 | 0.00 | 86 | 1007.1 |
| 20260510050204 | 10 | 50 | 4.8 | 8.0 | 0.00 | 0.00 | 0.00 | 86 | 1007.0 |
| 20260510045700 | 10 | 158 | 4.8 | 4.8 | 0.00 | 0.00 | 0.00 | 87 | 1006.9 |
| 20260510045157 | 10 | 247 | 3.2 | 4.8 | 0.00 | 0.00 | 0.00 | 87 | 1007.0 |
| 20260510044653 | 10 | 141 | 1.6 | 1.6 | 0.00 | 0.00 | 0.00 | 87 | 1007.1 |
| 20260510044151 | 10 | 103 | 1.6 | 3.2 | 0.00 | 0.00 | 0.00 | 88 | 1007.0 |
| 20260510043646 | 10 | 209 | 3.2 | 3.2 | 0.00 | 0.00 | 0.00 | 88 | 1007.1 |
| 20260510043143 | 10 | 221 | 1.6 | 1.6 | 0.00 | 0.00 | 0.00 | 88 | 1006.9 |
| 20260510042641 | 10 | 133 | 1.6 | 3.2 | 0.00 | 0.00 | 0.00 | 88 | 1007.0 |
| 20260510042137 | 10 | 105 | 3.2 | 3.2 | 0.00 | 0.00 | 0.00 | 88 | 1006.8 |
| 20260510041634 | 10 | 170 | 1.6 | 3.2 | 0.00 | 0.00 | 0.00 | 88 | 1006.8 |
| 20260510041131 | 10 | 306 | 1.6 | 1.6 | 0.00 | 0.00 | 0.00 | 88 | 1006.7 |
| 20260510040628 | 10 | 90 | 1.6 | 1.6 | 0.00 | 0.00 | 0.00 | 87 | 1006.8 |
| 20260510040125 | 10 | 204 | 3.2 | 4.8 | 0.00 | 0.00 | 0.00 | 87 | 1006.6 |
| 20260510035620 | 10 | 286 | 1.6 | 1.6 | 0.00 | 0.00 | 0.00 | 87 | 1006.6 |
| 20260510035115 | 10 | 263 | 1.6 | 3.2 | 0.00 | 0.00 | 0.00 | 87 | 1006.6 |
| 20260510034613 | 10 | 255 | 1.6 | 1.6 | 0.00 | 0.00 | 0.00 | 87 | 1006.8 |
| 20260510034110 | 10 | 161 | 4.8 | 8.0 | 0.00 | 0.00 | 0.00 | 87 | 1006.8 |
| 20260510033606 | 10 | 241 | 1.6 | 1.6 | 0.00 | 0.00 | 0.00 | 87 | 1006.9 |
| 20260510033104 | 10 | 93 | 1.6 | 3.2 | 0.00 | 0.00 | 0.00 | 87 | 1006.9 |
| 20260510032600 | 10 | 225 | 3.2 | 4.8 | 0.00 | 0.00 | 0.00 | 87 | 1007.0 |
| 20260510032055 | 10 | 197 | 3.2 | 3.2 | 0.00 | 0.00 | 0.00 | 87 | 1006.7 |
| 20260510031550 | 10 | 113 | 4.8 | 4.8 | 0.00 | 0.00 | 0.00 | 87 | 1006.9 |
| 20260510031047 | 10 | 238 | 4.8 | 8.0 | 0.00 | 0.00 | 0.00 | 87 | 1006.8 |
| 20260510030542 | 10 | 184 | 4.8 | 4.8 | 0.00 | 0.00 | 0.00 | 87 | 1006.7 |
| 20260510030040 | 10 | 126 | 4.8 | 9.7 | 0.00 | 0.00 | 0.00 | 86 | 1007.0 |
| 20260510025536 | 10 | 249 | 1.6 | 3.2 | 0.00 | 0.00 | 0.00 | 86 | 1007.0 |
| 20260510025034 | 10 | 128 | 6.4 | 9.7 | 0.00 | 0.00 | 0.00 | 86 | 1006.8 |
| 20260510024531 | 10 | 236 | 1.6 | 1.6 | 0.00 | 0.00 | 0.00 | 86 | 1007.1 |
| 20260510024027 | 10 | 253 | 1.6 | 1.6 | 0.00 | 0.00 | 0.00 | 85 | 1007.0 |
| 20260510023523 | 10 | 148 | 6.4 | 9.7 | 0.00 | 0.00 | 0.00 | 85 | 1007.1 |
| 20260510023020 | 10 | 230 | 1.6 | 3.2 | 0.00 | 0.00 | 0.00 | 85 | 1006.9 |
| 20260510022520 | 10 | 159 | 3.2 | 3.2 | 0.00 | 0.00 | 0.00 | 85 | 1007.1 |
| 20260510022014 | 10 | 99 | 4.8 | 4.8 | 0.00 | 0.00 | 0.00 | 85 | 1006.7 |
| 20260510021511 | 10 | 164 | 4.8 | 9.7 | 0.00 | 0.00 | 0.00 | 85 | 1007.0 |
| 20260510021009 | 10 | 254 | 1.6 | 1.6 | 0.00 | 0.00 | 0.00 | 85 | 1007.3 |
| 20260510020509 | 10 | 198 | 4.8 | 4.8 | 0.00 | 0.00 | 0.00 | 85 | 1007.2 |
| 20260510020005 | 10 | 112 | 3.2 | 3.2 | 0.00 | 0.00 | 0.00 | 85 | 1007.2 |
| 20260510015500 | 10 | 211 | 3.2 | 3.2 | 0.00 | 0.00 | 0.00 | 84 | 1007.3 |
| 20260510014956 | 10 | 271 | 1.6 | 1.6 | 0.00 | 0.00 | 0.00 | 84 | 1007.3 |
| 20260510014454 | 10 | 88 | 3.2 | 3.2 | 0.00 | 0.00 | 0.00 | 84 | 1007.1 |
| 20260510013950 | 10 | 143 | 4.8 | 4.8 | 0.00 | 0.00 | 0.00 | 84 | 1007.4 |
| 20260510013444 | 10 | 106 | 4.8 | 4.8 | 0.00 | 0.00 | 0.00 | 84 | 1007.3 |
| 20260510012941 | 10 | 126 | 4.8 | 11.3 | 0.00 | 0.00 | 0.00 | 84 | 1007.3 |
| 20260510012436 | 10 | 345 | 1.6 | 1.6 | 0.00 | 0.00 | 0.00 | 84 | 1007.2 |
| 20260510011931 | 10 | 267 | 0.0 | 1.6 | 0.00 | 0.00 | 0.00 | 84 | 1007.5 |
| 20260510011425 | 10 | 192 | 3.2 | 3.2 | 0.00 | 0.00 | 0.00 | 84 | 1007.3 |
| 20260510010922 | 10 | 165 | 3.2 | 3.2 | 0.00 | 0.00 | 0.00 | 84 | 1007.4 |
| 20260510010420 | 10 | 143 | 3.2 | 4.8 | 0.00 | 0.00 | 0.00 | 84 | 1007.6 |
| 20260510005916 | 10 | 88 | 3.2 | 3.2 | 0.00 | 0.00 | 0.00 | 84 | 1007.5 |
| 20260510005412 | 10 | 98 | 3.2 | 3.2 | 0.00 | 0.00 | 0.00 | 84 | 1007.7 |
| 20260510004910 | 10 | 170 | 1.6 | 3.2 | 0.00 | 0.00 | 0.00 | 84 | 1007.6 |
| 20260510004407 | 10 | 120 | 1.6 | 3.2 | 0.00 | 0.00 | 0.00 | 84 | 1007.8 |
| 20260510003905 | 10 | 212 | 4.8 | 4.8 | 0.00 | 0.00 | 0.00 | 84 | 1007.6 |
| 20260510003402 | 10 | 204 | 3.2 | 4.8 | 0.00 | 0.00 | 0.00 | 84 | 1007.7 |
| 20260510002901 | 10 | 193 | 3.2 | 3.2 | 0.00 | 0.00 | 0.00 | 84 | 1007.7 |
| 20260510002358 | 10 | 146 | 3.2 | 4.8 | 0.00 | 0.00 | 0.00 | 83 | 1007.7 |
| 20260510001854 | 10 | 82 | 3.2 | 3.2 | 0.00 | 0.00 | 0.00 | 83 | 1007.7 |
| 20260510001352 | 10 | 184 | 4.8 | 8.0 | 0.00 | 0.00 | 0.00 | 83 | 1007.5 |
| 20260510000849 | 10 | 146 | 1.6 | 1.6 | 0.00 | 0.00 | 0.00 | 83 | 1007.6 |
| 20260510000348 | 10 | 133 | 6.4 | 8.0 | 0.00 | 0.00 | 0.00 | 82 | 1007.5 |
| 20260509235842 | 10 | 144 | 4.8 | 4.8 | 0.00 | 0.00 | 0.00 | 82 | 1007.7 |
| 20260509235339 | 10 | 250 | 1.6 | 3.2 | 0.00 | 0.00 | 0.00 | 82 | 1007.7 |
| 20260509234835 | 10 | 186 | 1.6 | 1.6 | 0.00 | 0.00 | 0.00 | 82 | 1007.5 |
| 20260509234332 | 10 | 261 | 1.6 | 1.6 | 0.00 | 0.00 | 0.00 | 82 | 1007.6 |
| 20260509233830 | 10 | 315 | 0.0 | 0.0 | 0.00 | 0.00 | 0.00 | 82 | 1007.5 |
| 20260509233328 | 10 | 237 | 4.8 | 4.8 | 0.00 | 0.00 | 0.00 | 82 | 1007.6 |
| 20260509232823 | 10 | 231 | 3.2 | 3.2 | 0.00 | 0.00 | 0.00 | 82 | 1007.7 |
| 20260509232321 | 10 | 194 | 3.2 | 3.2 | 0.00 | 0.00 | 0.00 | 82 | 1007.6 |
| 20260509231817 | 10 | 278 | 4.8 | 4.8 | 0.00 | 0.00 | 0.00 | 82 | 1007.5 |
| 20260509231314 | 11 | 188 | 3.2 | 4.8 | 0.00 | 0.00 | 0.00 | 82 | 1007.6 |
| 20260509230812 | 11 | 207 | 4.8 | 8.0 | 0.00 | 0.00 | 0.00 | 81 | 1007.5 |
| 20260509230308 | 11 | 255 | 1.6 | 3.2 | 0.00 | 0.00 | 0.00 | 82 | 1007.4 |
| 20260509225803 | 11 | 164 | 3.2 | 3.2 | 0.00 | 0.00 | 0.00 | 81 | 1007.5 |
| 20260509225300 | 11 | 2 | 0.0 | 1.6 | 0.00 | 0.00 | 0.00 | 81 | 1007.5 |
| 20260509224756 | 11 | 184 | 4.8 | 4.8 | 0.00 | 0.00 | 0.00 | 81 | 1007.7 |
| 20260509224253 | 11 | 177 | 4.8 | 4.8 | 0.00 | 0.00 | 0.00 | 81 | 1007.5 |
| 20260509223750 | 11 | 203 | 4.8 | 4.8 | 0.00 | 0.00 | 0.00 | 80 | 1007.8 |
| 20260509223247 | 11 | 187 | 4.8 | 4.8 | 0.00 | 0.00 | 0.00 | 80 | 1007.7 |
| 20260509222743 | 11 | 39 | 1.6 | 1.6 | 0.00 | 0.00 | 0.00 | 81 | 1007.8 |
| 20260509222239 | 11 | 150 | 3.2 | 4.8 | 0.00 | 0.00 | 0.00 | 80 | 1007.8 |
| 20260509221734 | 11 | 162 | 6.4 | 8.0 | 0.00 | 0.00 | 0.00 | 80 | 1008.0 |
| 20260509221231 | 11 | 166 | 4.8 | 4.8 | 0.00 | 0.00 | 0.00 | 80 | 1007.5 |
| 20260509220727 | 11 | 324 | 0.0 | 1.6 | 0.00 | 0.00 | 0.00 | 80 | 1007.7 |
| 20260509220224 | 11 | 188 | 3.2 | 3.2 | 0.00 | 0.00 | 0.00 | 80 | 1007.8 |
| 20260509215719 | 11 | 174 | 1.6 | 3.2 | 0.00 | 0.00 | 0.00 | 80 | 1007.9 |
| 20260509215216 | 11 | 175 | 4.8 | 4.8 | 0.00 | 0.00 | 0.00 | 80 | 1007.8 |
| 20260509214713 | 11 | 106 | 4.8 | 8.0 | 0.00 | 0.00 | 0.00 | 80 | 1007.9 |
| 20260509214210 | 11 | 203 | 6.4 | 8.0 | 0.00 | 0.00 | 0.00 | 80 | 1008.0 |
| 20260509213707 | 11 | 184 | 3.2 | 3.2 | 0.00 | 0.00 | 0.00 | 80 | 1008.1 |
| 20260509213202 | 11 | 158 | 3.2 | 3.2 | 0.00 | 0.00 | 0.00 | 80 | 1007.9 |
| 20260509212701 | 11 | 150 | 4.8 | 4.8 | 0.00 | 0.00 | 0.00 | 80 | 1008.0 |
| 20260509212157 | 11 | 147 | 4.8 | 8.0 | 0.00 | 0.00 | 0.00 | 79 | 1007.9 |
| 20260509211653 | 11 | 202 | 3.2 | 3.2 | 0.00 | 0.00 | 0.00 | 79 | 1007.9 |
| 20260509211149 | 11 | 265 | 1.6 | 1.6 | 0.00 | 0.00 | 0.00 | 80 | 1008.0 |
| 20260509210646 | 11 | 163 | 3.2 | 4.8 | 0.00 | 0.00 | 0.00 | 79 | 1008.1 |
| 20260509210144 | 11 | 201 | 3.2 | 8.0 | 0.00 | 0.00 | 0.00 | 79 | 1008.2 |
| 20260509205638 | 11 | 127 | 14.5 | 16.1 | 0.00 | 0.00 | 0.00 | 78 | 1008.2 |
| 20260509205133 | 11 | 152 | 8.0 | 9.7 | 0.00 | 0.00 | 0.00 | 78 | 1008.3 |
| 20260509204630 | 11 | 178 | 3.2 | 3.2 | 0.00 | 0.00 | 0.00 | 79 | 1008.3 |
| 20260509204126 | 11 | 80 | 8.0 | 12.9 | 0.00 | 0.00 | 0.00 | 79 | 1008.3 |
| 20260509203622 | 11 | 200 | 4.8 | 4.8 | 0.00 | 0.00 | 0.00 | 79 | 1008.3 |
| 20260509203120 | 11 | 127 | 4.8 | 4.8 | 0.00 | 0.00 | 0.00 | 79 | 1008.3 |
| 20260509202620 | 11 | 181 | 1.6 | 1.6 | 0.00 | 0.00 | 0.00 | 77 | 1008.5 |
| 20260509202115 | 11 | 115 | 6.4 | 8.0 | 0.00 | 0.00 | 0.00 | 77 | 1008.2 |
| 20260509201610 | 11 | 210 | 4.8 | 4.8 | 0.00 | 0.00 | 0.00 | 75 | 1008.4 |
| 20260509201108 | 11 | 181 | 9.7 | 11.3 | 0.00 | 0.00 | 0.00 | 74 | 1008.5 |
| 20260509200603 | 11 | 88 | 6.4 | 9.7 | 0.00 | 0.00 | 0.00 | 73 | 1008.5 |
| 20260509200059 | 11 | 192 | 3.2 | 4.8 | 0.00 | 0.00 | 0.00 | 73 | 1008.3 |
| 20260509195555 | 12 | 115 | 4.8 | 8.0 | 0.00 | 0.00 | 0.00 | 72 | 1008.4 |
| 20260509195050 | 12 | 198 | 4.8 | 4.8 | 0.00 | 0.00 | 0.00 | 72 | 1008.3 |
| 20260509194549 | 12 | 126 | 12.9 | 16.1 | 0.00 | 0.00 | 0.00 | 71 | 1008.4 |
| 20260509194048 | 12 | 109 | 8.0 | 11.3 | 0.00 | 0.00 | 0.00 | 71 | 1008.5 |
| 20260509193542 | 12 | 165 | 3.2 | 3.2 | 0.00 | 0.00 | 0.00 | 72 | 1008.4 |
| 20260509193039 | 12 | 97 | 4.8 | 4.8 | 0.00 | 0.00 | 0.00 | 72 | 1008.7 |
| 20260509192536 | 12 | 99 | 8.0 | 9.7 | 0.00 | 0.00 | 0.00 | 72 | 1008.4 |
| 20260509192031 | 12 | 126 | 9.7 | 11.3 | 0.00 | 0.00 | 0.00 | 72 | 1008.3 |
| 20260509191525 | 12 | 170 | 6.4 | 9.7 | 0.00 | 0.00 | 0.00 | 72 | 1008.6 |
| 20260509191021 | 12 | 163 | 4.8 | 4.8 | 0.00 | 0.00 | 0.00 | 74 | 1008.5 |
| 20260509190519 | 12 | 137 | 6.4 | 9.7 | 0.00 | 0.00 | 0.00 | 74 | 1008.6 |
| 20260509190017 | 11 | 197 | 4.8 | 4.8 | 0.00 | 0.00 | 0.00 | 74 | 1008.5 |
| 20260509185514 | 11 | 133 | 3.2 | 4.8 | 0.00 | 0.00 | 0.00 | 74 | 1008.8 |
| 20260509185010 | 11 | 169 | 9.7 | 14.5 | 0.00 | 0.00 | 0.00 | 74 | 1009.0 |
| 20260509184509 | 11 | 66 | 4.8 | 8.0 | 0.00 | 0.00 | 0.00 | 74 | 1008.9 |
| 20260509184004 | 11 | 125 | 6.4 | 8.0 | 0.00 | 0.00 | 0.00 | 73 | 1008.9 |
| 20260509183459 | 11 | 128 | 6.4 | 9.7 | 0.00 | 0.00 | 0.00 | 73 | 1009.0 |
| 20260509182955 | 12 | 131 | 12.9 | 16.1 | 0.00 | 0.00 | 0.00 | 70 | 1009.1 |
| 20260509182452 | 12 | 226 | 11.3 | 14.5 | 0.00 | 0.00 | 0.00 | 66 | 1009.1 |
| 20260509181949 | 12 | 187 | 4.8 | 8.0 | 0.00 | 0.00 | 0.00 | 65 | 1009.1 |
| 20260509181447 | 12 | 226 | 9.7 | 12.9 | 0.00 | 0.00 | 0.00 | 66 | 1009.2 |
| 20260509180945 | 12 | 160 | 4.8 | 4.8 | 0.00 | 0.00 | 0.00 | 66 | 1009.1 |
| 20260509180440 | 12 | 150 | 6.4 | 8.0 | 0.00 | 0.00 | 0.00 | 63 | 1009.0 |
| 20260509175937 | 12 | 287 | 0.0 | 1.6 | 0.00 | 0.00 | 0.00 | 61 | 1009.2 |
| 20260509175433 | 13 | 160 | 9.7 | 11.3 | 0.00 | 0.00 | 0.00 | 60 | 1009.2 |
| 20260509174929 | 13 | 122 | 4.8 | 4.8 | 0.00 | 0.00 | 0.00 | 59 | 1009.1 |
| 20260509174426 | 13 | 156 | 3.2 | 4.8 | 0.00 | 0.00 | 0.00 | 59 | 1009.0 |
| 20260509173922 | 13 | 174 | 9.7 | 12.9 | 0.00 | 0.00 | 0.00 | 56 | 1009.1 |
| 20260509173421 | 13 | 271 | 4.8 | 4.8 | 0.00 | 0.00 | 0.00 | 54 | 1009.0 |
| 20260509172918 | 13 | 213 | 4.8 | 8.0 | 0.00 | 0.00 | 0.00 | 55 | 1009.2 |
| 20260509172415 | 13 | 277 | 6.4 | 8.0 | 0.00 | 0.00 | 0.00 | 53 | 1009.1 |
| 20260509171910 | 13 | 283 | 3.2 | 3.2 | 0.00 | 0.00 | 0.00 | 52 | 1009.2 |